sensor_id;sensor_type;location;lat;lon;timestamp;P1;durP1;ratioP1;P2;durP2;ratioP2
68188;SDS011;66299;47.514;19.218;2023-08-07T20:16:25;6.28;;;1.90;;
68188;SDS011;66299;47.514;19.218;2023-08-07T20:18:56;9.25;;;2.10;;
68188;SDS011;66299;47.514;19.218;2023-08-07T20:21:25;6.03;;;1.90;;
68188;SDS011;66299;47.514;19.218;2023-08-07T20:23:54;5.90;;;1.80;;
68188;SDS011;66299;47.514;19.218;2023-08-07T20:26:22;4.90;;;1.83;;
68188;SDS011;66299;47.514;19.218;2023-08-07T20:28:51;6.72;;;2.00;;
68188;SDS011;66299;47.514;19.218;2023-08-07T20:31:21;5.18;;;1.80;;
68188;SDS011;66299;47.514;19.218;2023-08-07T20:33:55;8.50;;;2.00;;
68188;SDS011;66299;47.514;19.218;2023-08-07T20:36:31;5.78;;;1.95;;
68188;SDS011;66299;47.514;19.218;2023-08-07T20:39:00;7.60;;;1.90;;
68188;SDS011;66299;47.514;19.218;2023-08-07T20:41:32;6.13;;;1.92;;
68188;SDS011;66299;47.514;19.218;2023-08-07T20:44:05;4.70;;;1.70;;
68188;SDS011;66299;47.514;19.218;2023-08-07T20:46:39;6.18;;;1.95;;
68188;SDS011;66299;47.514;19.218;2023-08-07T20:49:09;7.88;;;1.90;;
68188;SDS011;66299;47.514;19.218;2023-08-07T20:51:40;6.97;;;1.90;;
68188;SDS011;66299;47.514;19.218;2023-08-07T20:54:20;5.75;;;1.95;;
68188;SDS011;66299;47.514;19.218;2023-08-07T20:56:52;5.40;;;2.00;;
68188;SDS011;66299;47.514;19.218;2023-08-07T20:59:21;7.53;;;2.00;;
68188;SDS011;66299;47.514;19.218;2023-08-07T21:01:52;6.38;;;2.20;;
68188;SDS011;66299;47.514;19.218;2023-08-07T21:04:25;5.63;;;1.88;;
68188;SDS011;66299;47.514;19.218;2023-08-07T21:06:56;5.05;;;1.88;;
68188;SDS011;66299;47.514;19.218;2023-08-07T21:09:27;5.70;;;1.95;;
68188;SDS011;66299;47.514;19.218;2023-08-07T21:11:56;6.50;;;1.98;;
68188;SDS011;66299;47.514;19.218;2023-08-07T21:14:32;5.97;;;2.00;;
68188;SDS011;66299;47.514;19.218;2023-08-07T21:17:09;7.93;;;1.88;;
68188;SDS011;66299;47.514;19.218;2023-08-07T21:19:44;5.18;;;1.83;;
68188;SDS011;66299;47.514;19.218;2023-08-07T21:22:15;5.22;;;1.80;;
68188;SDS011;66299;47.514;19.218;2023-08-07T21:24:45;3.90;;;1.60;;
68188;SDS011;66299;47.514;19.218;2023-08-07T21:27:14;6.30;;;1.80;;
68188;SDS011;66299;47.514;19.218;2023-08-07T21:29:43;5.20;;;1.70;;
68188;SDS011;66299;47.514;19.218;2023-08-07T21:32:12;4.75;;;1.70;;
68188;SDS011;66299;47.514;19.218;2023-08-07T21:34:45;5.00;;;1.80;;
68188;SDS011;66299;47.514;19.218;2023-08-07T21:37:14;4.68;;;1.70;;
68188;SDS011;66299;47.514;19.218;2023-08-07T21:39:51;4.70;;;1.60;;
68188;SDS011;66299;47.514;19.218;2023-08-07T21:42:20;5.10;;;1.80;;
68188;SDS011;66299;47.514;19.218;2023-08-07T21:44:55;4.50;;;1.70;;
68188;SDS011;66299;47.514;19.218;2023-08-07T21:47:25;9.32;;;1.70;;
68188;SDS011;66299;47.514;19.218;2023-08-07T21:49:56;4.95;;;1.60;;
68188;SDS011;66299;47.514;19.218;2023-08-07T21:52:27;4.68;;;1.67;;
68188;SDS011;66299;47.514;19.218;2023-08-07T21:55:00;4.72;;;1.60;;
68188;SDS011;66299;47.514;19.218;2023-08-07T21:57:30;4.10;;;1.60;;
68188;SDS011;66299;47.514;19.218;2023-08-07T22:00:02;7.28;;;1.75;;
68188;SDS011;66299;47.514;19.218;2023-08-07T22:02:34;3.75;;;1.60;;
68188;SDS011;66299;47.514;19.218;2023-08-07T22:05:13;3.55;;;1.50;;
68188;SDS011;66299;47.514;19.218;2023-08-07T22:07:45;3.83;;;1.50;;
68188;SDS011;66299;47.514;19.218;2023-08-07T22:10:14;4.75;;;1.60;;
68188;SDS011;66299;47.514;19.218;2023-08-07T22:12:44;3.30;;;1.50;;
68188;SDS011;66299;47.514;19.218;2023-08-07T22:15:18;4.85;;;1.60;;
68188;SDS011;66299;47.514;19.218;2023-08-07T22:17:51;3.55;;;1.60;;
68188;SDS011;66299;47.514;19.218;2023-08-07T22:20:23;4.07;;;1.55;;
68188;SDS011;66299;47.514;19.218;2023-08-07T22:22:53;4.22;;;1.67;;
68188;SDS011;66299;47.514;19.218;2023-08-07T22:25:22;3.35;;;1.50;;
68188;SDS011;66299;47.514;19.218;2023-08-07T22:27:51;4.07;;;1.60;;
68188;SDS011;66299;47.514;19.218;2023-08-07T22:30:24;4.63;;;1.58;;
68188;SDS011;66299;47.514;19.218;2023-08-07T22:32:54;4.57;;;1.57;;
68188;SDS011;66299;47.514;19.218;2023-08-07T22:35:24;5.72;;;1.70;;
68188;SDS011;66299;47.514;19.218;2023-08-07T22:37:56;5.75;;;1.60;;
68188;SDS011;66299;47.514;19.218;2023-08-07T22:40:30;6.35;;;1.70;;
68188;SDS011;66299;47.514;19.218;2023-08-07T22:42:59;4.82;;;1.60;;
68188;SDS011;66299;47.514;19.218;2023-08-07T22:45:28;5.40;;;1.60;;
68188;SDS011;66299;47.514;19.218;2023-08-07T22:48:00;4.90;;;1.60;;
68188;SDS011;66299;47.514;19.218;2023-08-07T22:50:33;6.28;;;1.80;;
68188;SDS011;66299;47.514;19.218;2023-08-07T22:53:04;4.53;;;1.70;;
68188;SDS011;66299;47.514;19.218;2023-08-07T22:55:36;3.60;;;1.50;;
68188;SDS011;66299;47.514;19.218;2023-08-07T22:58:06;3.97;;;1.50;;
68188;SDS011;66299;47.514;19.218;2023-08-07T23:00:41;3.20;;;1.60;;
68188;SDS011;66299;47.514;19.218;2023-08-07T23:03:10;6.63;;;1.50;;
68188;SDS011;66299;47.514;19.218;2023-08-07T23:05:50;4.35;;;1.60;;
68188;SDS011;66299;47.514;19.218;2023-08-07T23:08:22;10.32;;;1.83;;
68188;SDS011;66299;47.514;19.218;2023-08-07T23:10:51;10.30;;;2.10;;
68188;SDS011;66299;47.514;19.218;2023-08-07T23:13:25;3.45;;;1.40;;
68188;SDS011;66299;47.514;19.218;2023-08-07T23:15:55;6.25;;;1.60;;
68188;SDS011;66299;47.514;19.218;2023-08-07T23:21:01;4.70;;;1.50;;
68188;SDS011;66299;47.514;19.218;2023-08-07T23:23:34;5.07;;;1.63;;
68188;SDS011;66299;47.514;19.218;2023-08-07T23:26:03;3.53;;;1.50;;
68188;SDS011;66299;47.514;19.218;2023-08-07T23:28:34;3.83;;;1.60;;
68188;SDS011;66299;47.514;19.218;2023-08-07T23:31:09;4.80;;;1.60;;
68188;SDS011;66299;47.514;19.218;2023-08-07T23:33:42;4.43;;;1.60;;
68188;SDS011;66299;47.514;19.218;2023-08-07T23:36:15;3.95;;;1.50;;
68188;SDS011;66299;47.514;19.218;2023-08-07T23:38:46;6.90;;;1.70;;
68188;SDS011;66299;47.514;19.218;2023-08-07T23:41:14;5.30;;;1.60;;
68188;SDS011;66299;47.514;19.218;2023-08-07T23:43:46;4.28;;;1.60;;
68188;SDS011;66299;47.514;19.218;2023-08-07T23:46:18;4.57;;;1.50;;
68188;SDS011;66299;47.514;19.218;2023-08-07T23:48:49;3.50;;;1.50;;
68188;SDS011;66299;47.514;19.218;2023-08-07T23:51:23;4.32;;;1.60;;
68188;SDS011;66299;47.514;19.218;2023-08-07T23:53:52;4.72;;;1.63;;
68188;SDS011;66299;47.514;19.218;2023-08-07T23:56:24;5.00;;;1.50;;
68188;SDS011;66299;47.514;19.218;2023-08-07T23:58:56;3.50;;;1.60;;
